sensor_id;sensor_type;location;lat;lon;timestamp;temperature;humidity
11122;DHT22;5615;49.304;10.576;2023-11-19T00:01:32;5.30;99.90
11122;DHT22;5615;49.304;10.576;2023-11-19T00:03:59;5.20;99.90
11122;DHT22;5615;49.304;10.576;2023-11-19T00:06:27;5.30;99.90
11122;DHT22;5615;49.304;10.576;2023-11-19T00:08:54;5.30;99.90
11122;DHT22;5615;49.304;10.576;2023-11-19T00:11:20;5.30;99.90
11122;DHT22;5615;49.304;10.576;2023-11-19T00:13:47;5.30;99.90
11122;DHT22;5615;49.304;10.576;2023-11-19T00:16:14;5.30;99.90
11122;DHT22;5615;49.304;10.576;2023-11-19T00:18:41;5.30;99.90
11122;DHT22;5615;49.304;10.576;2023-11-19T00:21:08;5.30;99.90
11122;DHT22;5615;49.304;10.576;2023-11-19T00:23:37;5.40;99.90
11122;DHT22;5615;49.304;10.576;2023-11-19T00:26:04;5.30;99.90
11122;DHT22;5615;49.304;10.576;2023-11-19T00:28:31;5.30;99.90
11122;DHT22;5615;49.304;10.576;2023-11-19T00:30:58;5.30;99.90
11122;DHT22;5615;49.304;10.576;2023-11-19T00:33:25;5.30;99.90
11122;DHT22;5615;49.304;10.576;2023-11-19T00:35:51;5.30;99.90
11122;DHT22;5615;49.304;10.576;2023-11-19T00:38:18;5.40;99.90
11122;DHT22;5615;49.304;10.576;2023-11-19T00:40:46;5.40;99.90
11122;DHT22;5615;49.304;10.576;2023-11-19T00:43:13;5.40;99.90
11122;DHT22;5615;49.304;10.576;2023-11-19T00:45:39;5.40;99.90
11122;DHT22;5615;49.304;10.576;2023-11-19T00:48:06;5.40;99.90
11122;DHT22;5615;49.304;10.576;2023-11-19T00:50:33;5.40;99.90
11122;DHT22;5615;49.304;10.576;2023-11-19T00:52:59;5.40;99.90
11122;DHT22;5615;49.304;10.576;2023-11-19T00:55:26;5.50;99.90
11122;DHT22;5615;49.304;10.576;2023-11-19T00:57:54;5.50;99.90
11122;DHT22;5615;49.304;10.576;2023-11-19T01:00:21;5.50;99.90
11122;DHT22;5615;49.304;10.576;2023-11-19T01:02:51;5.50;99.90
11122;DHT22;5615;49.304;10.576;2023-11-19T01:05:18;5.50;99.90
11122;DHT22;5615;49.304;10.576;2023-11-19T01:07:47;5.50;99.90
11122;DHT22;5615;49.304;10.576;2023-11-19T01:10:14;5.50;99.90
11122;DHT22;5615;49.304;10.576;2023-11-19T01:12:41;5.60;99.90
11122;DHT22;5615;49.304;10.576;2023-11-19T01:15:09;5.60;99.90
11122;DHT22;5615;49.304;10.576;2023-11-19T01:17:36;5.60;99.90
11122;DHT22;5615;49.304;10.576;2023-11-19T01:20:04;5.60;99.90
11122;DHT22;5615;49.304;10.576;2023-11-19T01:22:31;5.60;99.90
11122;DHT22;5615;49.304;10.576;2023-11-19T01:24:58;5.60;99.90
11122;DHT22;5615;49.304;10.576;2023-11-19T01:27:25;5.60;99.90
11122;DHT22;5615;49.304;10.576;2023-11-19T01:29:52;5.60;99.90
11122;DHT22;5615;49.304;10.576;2023-11-19T01:32:20;5.70;99.90
11122;DHT22;5615;49.304;10.576;2023-11-19T01:34:46;5.70;99.90
11122;DHT22;5615;49.304;10.576;2023-11-19T01:37:13;5.70;99.90
11122;DHT22;5615;49.304;10.576;2023-11-19T01:39:40;5.70;99.90
11122;DHT22;5615;49.304;10.576;2023-11-19T01:42:06;5.70;99.90
11122;DHT22;5615;49.304;10.576;2023-11-19T01:44:33;5.80;99.90
11122;DHT22;5615;49.304;10.576;2023-11-19T01:47:00;5.80;99.90
11122;DHT22;5615;49.304;10.576;2023-11-19T01:49:28;5.80;99.90
11122;DHT22;5615;49.304;10.576;2023-11-19T01:51:55;5.80;99.90
11122;DHT22;5615;49.304;10.576;2023-11-19T01:54:23;5.80;99.90
11122;DHT22;5615;49.304;10.576;2023-11-19T01:56:52;5.80;99.90
11122;DHT22;5615;49.304;10.576;2023-11-19T01:59:19;5.80;99.90
11122;DHT22;5615;49.304;10.576;2023-11-19T02:01:51;5.80;99.90
11122;DHT22;5615;49.304;10.576;2023-11-19T02:04:18;5.80;99.90
11122;DHT22;5615;49.304;10.576;2023-11-19T02:06:48;5.90;99.90
11122;DHT22;5615;49.304;10.576;2023-11-19T02:09:18;5.90;99.90
11122;DHT22;5615;49.304;10.576;2023-11-19T02:11:46;6.00;99.90
11122;DHT22;5615;49.304;10.576;2023-11-19T02:14:17;6.10;99.90
11122;DHT22;5615;49.304;10.576;2023-11-19T02:16:45;6.10;99.90
11122;DHT22;5615;49.304;10.576;2023-11-19T02:19:12;6.10;99.90
11122;DHT22;5615;49.304;10.576;2023-11-19T02:21:38;6.10;99.90
11122;DHT22;5615;49.304;10.576;2023-11-19T02:24:12;6.20;99.90
11122;DHT22;5615;49.304;10.576;2023-11-19T02:26:46;6.20;99.90
11122;DHT22;5615;49.304;10.576;2023-11-19T02:29:15;6.30;99.90
11122;DHT22;5615;49.304;10.576;2023-11-19T02:31:41;6.40;99.90
11122;DHT22;5615;49.304;10.576;2023-11-19T02:34:10;6.40;99.90
11122;DHT22;5615;49.304;10.576;2023-11-19T02:36:38;6.40;99.90
11122;DHT22;5615;49.304;10.576;2023-11-19T02:39:06;6.40;99.90
11122;DHT22;5615;49.304;10.576;2023-11-19T02:41:38;6.50;99.90
11122;DHT22;5615;49.304;10.576;2023-11-19T02:44:05;6.50;99.90
11122;DHT22;5615;49.304;10.576;2023-11-19T02:46:34;6.50;99.90
11122;DHT22;5615;49.304;10.576;2023-11-19T02:49:00;6.50;99.90
11122;DHT22;5615;49.304;10.576;2023-11-19T02:51:27;6.50;99.90
11122;DHT22;5615;49.304;10.576;2023-11-19T02:53:55;6.60;99.90
11122;DHT22;5615;49.304;10.576;2023-11-19T02:56:22;6.60;99.90
11122;DHT22;5615;49.304;10.576;2023-11-19T02:58:52;6.70;99.90
11122;DHT22;5615;49.304;10.576;2023-11-19T03:01:22;6.70;99.90
11122;DHT22;5615;49.304;10.576;2023-11-19T03:03:56;6.80;99.90
11122;DHT22;5615;49.304;10.576;2023-11-19T03:06:23;6.70;99.90
11122;DHT22;5615;49.304;10.576;2023-11-19T03:08:50;6.80;99.90
11122;DHT22;5615;49.304;10.576;2023-11-19T03:11:17;6.80;99.90
11122;DHT22;5615;49.304;10.576;2023-11-19T03:13:43;6.80;99.90
11122;DHT22;5615;49.304;10.576;2023-11-19T03:16:10;6.80;99.90
11122;DHT22;5615;49.304;10.576;2023-11-19T03:18:37;6.90;99.90
11122;DHT22;5615;49.304;10.576;2023-11-19T03:21:06;6.90;99.90
11122;DHT22;5615;49.304;10.576;2023-11-19T03:23:33;7.00;99.90
11122;DHT22;5615;49.304;10.576;2023-11-19T03:26:00;7.00;99.90
11122;DHT22;5615;49.304;10.576;2023-11-19T03:28:29;7.10;99.90
11122;DHT22;5615;49.304;10.576;2023-11-19T03:30:56;7.20;99.90
11122;DHT22;5615;49.304;10.576;2023-11-19T03:33:22;7.30;99.90
11122;DHT22;5615;49.304;10.576;2023-11-19T03:35:53;7.30;99.90
11122;DHT22;5615;49.304;10.576;2023-11-19T03:38:21;7.40;99.90
11122;DHT22;5615;49.304;10.576;2023-11-19T03:40:47;7.50;99.90
11122;DHT22;5615;49.304;10.576;2023-11-19T03:43:14;7.70;99.90
11122;DHT22;5615;49.304;10.576;2023-11-19T03:45:41;7.70;99.90
11122;DHT22;5615;49.304;10.576;2023-11-19T03:48:07;7.70;99.90
11122;DHT22;5615;49.304;10.576;2023-11-19T03:50:34;7.80;99.90
11122;DHT22;5615;49.304;10.576;2023-11-19T03:53:01;7.80;99.90
11122;DHT22;5615;49.304;10.576;2023-11-19T03:55:29;7.90;99.90
11122;DHT22;5615;49.304;10.576;2023-11-19T03:57:56;7.90;99.90
11122;DHT22;5615;49.304;10.576;2023-11-19T04:00:23;7.90;99.90
11122;DHT22;5615;49.304;10.576;2023-11-19T04:02:50;7.90;99.90
11122;DHT22;5615;49.304;10.576;2023-11-19T04:05:16;8.00;99.90
11122;DHT22;5615;49.304;10.576;2023-11-19T04:07:44;8.00;99.90
11122;DHT22;5615;49.304;10.576;2023-11-19T04:10:11;8.00;99.90
11122;DHT22;5615;49.304;10.576;2023-11-19T04:12:38;8.00;99.90
11122;DHT22;5615;49.304;10.576;2023-11-19T04:15:06;8.00;99.90
11122;DHT22;5615;49.304;10.576;2023-11-19T04:17:34;8.10;99.90
11122;DHT22;5615;49.304;10.576;2023-11-19T04:20:01;8.10;99.90
11122;DHT22;5615;49.304;10.576;2023-11-19T04:22:29;8.20;99.90
11122;DHT22;5615;49.304;10.576;2023-11-19T04:24:56;8.30;99.90
11122;DHT22;5615;49.304;10.576;2023-11-19T04:27:23;8.30;99.90
11122;DHT22;5615;49.304;10.576;2023-11-19T04:29:52;8.30;99.90
11122;DHT22;5615;49.304;10.576;2023-11-19T04:32:18;8.40;99.90
11122;DHT22;5615;49.304;10.576;2023-11-19T04:34:46;8.40;99.90
11122;DHT22;5615;49.304;10.576;2023-11-19T04:37:13;8.40;99.90
11122;DHT22;5615;49.304;10.576;2023-11-19T04:39:39;8.50;99.90
11122;DHT22;5615;49.304;10.576;2023-11-19T04:42:06;8.50;99.90
11122;DHT22;5615;49.304;10.576;2023-11-19T04:44:32;8.60;99.90
11122;DHT22;5615;49.304;10.576;2023-11-19T04:47:01;8.60;99.90
11122;DHT22;5615;49.304;10.576;2023-11-19T04:49:27;8.70;99.90
11122;DHT22;5615;49.304;10.576;2023-11-19T04:51:54;8.70;99.90
11122;DHT22;5615;49.304;10.576;2023-11-19T04:54:20;8.70;99.90
11122;DHT22;5615;49.304;10.576;2023-11-19T04:56:47;8.80;99.90
11122;DHT22;5615;49.304;10.576;2023-11-19T04:59:14;8.80;99.90
11122;DHT22;5615;49.304;10.576;2023-11-19T05:01:41;8.80;99.90
11122;DHT22;5615;49.304;10.576;2023-11-19T05:04:09;8.80;99.90
11122;DHT22;5615;49.304;10.576;2023-11-19T05:06:36;8.80;99.90
11122;DHT22;5615;49.304;10.576;2023-11-19T05:09:03;8.90;99.90
11122;DHT22;5615;49.304;10.576;2023-11-19T05:11:32;8.80;99.90
11122;DHT22;5615;49.304;10.576;2023-11-19T05:13:59;8.90;99.90
11122;DHT22;5615;49.304;10.576;2023-11-19T05:16:26;8.90;99.90
11122;DHT22;5615;49.304;10.576;2023-11-19T05:18:53;8.90;99.90
11122;DHT22;5615;49.304;10.576;2023-11-19T05:21:21;8.90;99.90
11122;DHT22;5615;49.304;10.576;2023-11-19T05:23:47;8.90;99.90
11122;DHT22;5615;49.304;10.576;2023-11-19T05:26:18;8.90;99.90
11122;DHT22;5615;49.304;10.576;2023-11-19T05:28:45;9.00;99.90
11122;DHT22;5615;49.304;10.576;2023-11-19T05:31:12;9.00;99.90
11122;DHT22;5615;49.304;10.576;2023-11-19T05:33:38;9.00;99.90
11122;DHT22;5615;49.304;10.576;2023-11-19T05:36:06;9.00;99.90
11122;DHT22;5615;49.304;10.576;2023-11-19T05:38:34;9.00;99.90
11122;DHT22;5615;49.304;10.576;2023-11-19T05:41:01;9.00;99.90
11122;DHT22;5615;49.304;10.576;2023-11-19T05:43:28;9.00;99.90
11122;DHT22;5615;49.304;10.576;2023-11-19T05:45:54;9.10;99.90
11122;DHT22;5615;49.304;10.576;2023-11-19T05:48:21;9.10;99.90
11122;DHT22;5615;49.304;10.576;2023-11-19T05:50:48;9.10;99.90
11122;DHT22;5615;49.304;10.576;2023-11-19T05:53:16;9.10;99.90
11122;DHT22;5615;49.304;10.576;2023-11-19T05:55:44;9.10;99.90
11122;DHT22;5615;49.304;10.576;2023-11-19T05:58:14;9.10;99.90
11122;DHT22;5615;49.304;10.576;2023-11-19T06:00:41;9.10;99.90
11122;DHT22;5615;49.304;10.576;2023-11-19T06:03:09;9.20;99.90
11122;DHT22;5615;49.304;10.576;2023-11-19T06:05:35;9.20;99.90
11122;DHT22;5615;49.304;10.576;2023-11-19T06:08:02;9.20;99.90
11122;DHT22;5615;49.304;10.576;2023-11-19T06:10:29;9.20;99.90
11122;DHT22;5615;49.304;10.576;2023-11-19T06:12:58;9.30;99.90
11122;DHT22;5615;49.304;10.576;2023-11-19T06:15:25;9.30;99.90
11122;DHT22;5615;49.304;10.576;2023-11-19T06:17:51;9.30;99.90
11122;DHT22;5615;49.304;10.576;2023-11-19T06:20:18;9.30;99.90
11122;DHT22;5615;49.304;10.576;2023-11-19T06:22:45;9.40;99.90
11122;DHT22;5615;49.304;10.576;2023-11-19T06:25:12;9.30;99.90
11122;DHT22;5615;49.304;10.576;2023-11-19T06:27:40;9.40;99.90
11122;DHT22;5615;49.304;10.576;2023-11-19T06:30:09;9.40;99.90
11122;DHT22;5615;49.304;10.576;2023-11-19T06:32:36;9.40;99.90
11122;DHT22;5615;49.304;10.576;2023-11-19T06:35:02;9.50;99.90
11122;DHT22;5615;49.304;10.576;2023-11-19T06:37:30;9.50;99.90
11122;DHT22;5615;49.304;10.576;2023-11-19T06:39:56;9.50;99.90
11122;DHT22;5615;49.304;10.576;2023-11-19T06:42:23;9.60;99.90
11122;DHT22;5615;49.304;10.576;2023-11-19T06:44:50;9.60;99.90
11122;DHT22;5615;49.304;10.576;2023-11-19T06:47:18;9.50;99.90
11122;DHT22;5615;49.304;10.576;2023-11-19T06:49:44;9.60;99.90
11122;DHT22;5615;49.304;10.576;2023-11-19T06:52:11;9.60;99.90
11122;DHT22;5615;49.304;10.576;2023-11-19T06:54:38;9.60;99.90
11122;DHT22;5615;49.304;10.576;2023-11-19T06:57:05;9.60;99.90
11122;DHT22;5615;49.304;10.576;2023-11-19T06:59:33;9.60;99.90
11122;DHT22;5615;49.304;10.576;2023-11-19T07:01:59;9.70;99.90
11122;DHT22;5615;49.304;10.576;2023-11-19T07:04:27;9.70;99.90
11122;DHT22;5615;49.304;10.576;2023-11-19T07:06:54;9.70;99.90
11122;DHT22;5615;49.304;10.576;2023-11-19T07:09:20;9.70;99.90
11122;DHT22;5615;49.304;10.576;2023-11-19T07:11:49;9.70;99.90
11122;DHT22;5615;49.304;10.576;2023-11-19T07:14:17;9.80;99.90
11122;DHT22;5615;49.304;10.576;2023-11-19T07:16:45;9.80;99.90
11122;DHT22;5615;49.304;10.576;2023-11-19T07:19:12;9.90;99.90
11122;DHT22;5615;49.304;10.576;2023-11-19T07:21:42;9.90;99.90
11122;DHT22;5615;49.304;10.576;2023-11-19T07:24:10;9.90;99.90
11122;DHT22;5615;49.304;10.576;2023-11-19T07:26:42;10.00;99.90
11122;DHT22;5615;49.304;10.576;2023-11-19T07:29:08;10.00;99.90
11122;DHT22;5615;49.304;10.576;2023-11-19T07:31:35;10.00;99.90
11122;DHT22;5615;49.304;10.576;2023-11-19T07:34:02;10.00;99.90
11122;DHT22;5615;49.304;10.576;2023-11-19T07:36:29;10.10;99.90
11122;DHT22;5615;49.304;10.576;2023-11-19T07:38:57;10.10;99.90
11122;DHT22;5615;49.304;10.576;2023-11-19T07:41:24;10.10;99.90
11122;DHT22;5615;49.304;10.576;2023-11-19T07:43:51;10.10;99.90
11122;DHT22;5615;49.304;10.576;2023-11-19T07:46:19;10.20;99.90
11122;DHT22;5615;49.304;10.576;2023-11-19T07:48:46;10.20;99.90
11122;DHT22;5615;49.304;10.576;2023-11-19T07:51:13;10.30;99.90
11122;DHT22;5615;49.304;10.576;2023-11-19T07:53:40;10.30;99.90
11122;DHT22;5615;49.304;10.576;2023-11-19T07:56:08;10.30;99.90
11122;DHT22;5615;49.304;10.576;2023-11-19T07:58:35;10.30;99.90
11122;DHT22;5615;49.304;10.576;2023-11-19T08:01:02;10.40;99.90
11122;DHT22;5615;49.304;10.576;2023-11-19T08:03:29;10.40;99.90
11122;DHT22;5615;49.304;10.576;2023-11-19T08:05:56;10.40;99.90
11122;DHT22;5615;49.304;10.576;2023-11-19T08:08:23;10.50;99.90
11122;DHT22;5615;49.304;10.576;2023-11-19T08:10:49;10.50;99.90
11122;DHT22;5615;49.304;10.576;2023-11-19T08:13:18;10.60;99.90
11122;DHT22;5615;49.304;10.576;2023-11-19T08:15:45;10.70;99.90
11122;DHT22;5615;49.304;10.576;2023-11-19T08:18:12;10.60;99.90
11122;DHT22;5615;49.304;10.576;2023-11-19T08:20:39;10.70;99.90
11122;DHT22;5615;49.304;10.576;2023-11-19T08:23:06;10.70;99.90
11122;DHT22;5615;49.304;10.576;2023-11-19T08:25:33;10.70;99.90
11122;DHT22;5615;49.304;10.576;2023-11-19T08:28:00;10.80;99.90
11122;DHT22;5615;49.304;10.576;2023-11-19T08:30:30;10.80;99.90
11122;DHT22;5615;49.304;10.576;2023-11-19T08:32:56;10.80;99.90
11122;DHT22;5615;49.304;10.576;2023-11-19T08:35:24;10.90;99.90
11122;DHT22;5615;49.304;10.576;2023-11-19T08:37:50;11.00;99.90
11122;DHT22;5615;49.304;10.576;2023-11-19T08:40:18;11.10;99.90
11122;DHT22;5615;49.304;10.576;2023-11-19T08:42:45;11.20;99.90
11122;DHT22;5615;49.304;10.576;2023-11-19T08:45:12;11.40;99.90
11122;DHT22;5615;49.304;10.576;2023-11-19T08:47:40;11.50;99.90
11122;DHT22;5615;49.304;10.576;2023-11-19T08:50:07;11.60;99.90
11122;DHT22;5615;49.304;10.576;2023-11-19T08:52:34;11.70;99.90
11122;DHT22;5615;49.304;10.576;2023-11-19T08:55:01;11.70;99.90
11122;DHT22;5615;49.304;10.576;2023-11-19T08:57:27;11.80;99.90
11122;DHT22;5615;49.304;10.576;2023-11-19T08:59:54;11.80;99.90
11122;DHT22;5615;49.304;10.576;2023-11-19T09:02:21;11.90;99.90
11122;DHT22;5615;49.304;10.576;2023-11-19T09:04:48;11.90;99.90
11122;DHT22;5615;49.304;10.576;2023-11-19T09:07:16;12.00;99.90
11122;DHT22;5615;49.304;10.576;2023-11-19T09:09:42;12.00;99.90
11122;DHT22;5615;49.304;10.576;2023-11-19T09:12:09;12.00;99.90
11122;DHT22;5615;49.304;10.576;2023-11-19T09:14:36;12.00;99.90
11122;DHT22;5615;49.304;10.576;2023-11-19T09:17:02;12.00;99.90
11122;DHT22;5615;49.304;10.576;2023-11-19T09:19:32;12.00;99.90
11122;DHT22;5615;49.304;10.576;2023-11-19T09:22:01;12.00;99.90
11122;DHT22;5615;49.304;10.576;2023-11-19T09:24:28;12.00;99.90
11122;DHT22;5615;49.304;10.576;2023-11-19T09:26:54;12.00;99.90
11122;DHT22;5615;49.304;10.576;2023-11-19T09:29:21;11.90;99.90
11122;DHT22;5615;49.304;10.576;2023-11-19T09:31:49;11.70;99.90
11122;DHT22;5615;49.304;10.576;2023-11-19T09:34:15;11.50;99.90
11122;DHT22;5615;49.304;10.576;2023-11-19T09:36:42;11.40;99.90
11122;DHT22;5615;49.304;10.576;2023-11-19T09:39:11;11.10;99.90
11122;DHT22;5615;49.304;10.576;2023-11-19T09:41:40;10.90;99.90
11122;DHT22;5615;49.304;10.576;2023-11-19T09:44:07;10.80;99.90
11122;DHT22;5615;49.304;10.576;2023-11-19T09:46:35;10.70;99.90
11122;DHT22;5615;49.304;10.576;2023-11-19T09:49:02;10.70;99.90
11122;DHT22;5615;49.304;10.576;2023-11-19T09:51:30;10.70;99.90
11122;DHT22;5615;49.304;10.576;2023-11-19T09:53:57;10.70;99.90
11122;DHT22;5615;49.304;10.576;2023-11-19T09:56:26;10.70;99.90
11122;DHT22;5615;49.304;10.576;2023-11-19T09:58:54;10.70;99.90
11122;DHT22;5615;49.304;10.576;2023-11-19T10:01:21;10.80;99.90
11122;DHT22;5615;49.304;10.576;2023-11-19T10:03:49;10.90;99.90
11122;DHT22;5615;49.304;10.576;2023-11-19T10:06:16;11.00;99.90
11122;DHT22;5615;49.304;10.576;2023-11-19T10:08:44;11.30;99.90
11122;DHT22;5615;49.304;10.576;2023-11-19T10:11:11;11.90;99.90
11122;DHT22;5615;49.304;10.576;2023-11-19T10:13:39;12.10;99.90
11122;DHT22;5615;49.304;10.576;2023-11-19T10:16:08;12.20;99.90
11122;DHT22;5615;49.304;10.576;2023-11-19T10:18:37;13.20;99.90
11122;DHT22;5615;49.304;10.576;2023-11-19T10:21:04;13.10;99.90
11122;DHT22;5615;49.304;10.576;2023-11-19T10:23:47;12.90;99.90
11122;DHT22;5615;49.304;10.576;2023-11-19T10:26:14;13.30;99.90
11122;DHT22;5615;49.304;10.576;2023-11-19T10:28:42;13.90;99.90
11122;DHT22;5615;49.304;10.576;2023-11-19T10:31:11;13.20;99.90
11122;DHT22;5615;49.304;10.576;2023-11-19T10:33:38;13.00;99.90
11122;DHT22;5615;49.304;10.576;2023-11-19T10:36:06;12.90;99.90
11122;DHT22;5615;49.304;10.576;2023-11-19T10:38:33;14.20;99.90
11122;DHT22;5615;49.304;10.576;2023-11-19T10:41:00;13.00;99.90
11122;DHT22;5615;49.304;10.576;2023-11-19T10:43:27;13.70;99.90
11122;DHT22;5615;49.304;10.576;2023-11-19T10:46:09;14.40;99.90
11122;DHT22;5615;49.304;10.576;2023-11-19T10:48:36;15.20;99.90
11122;DHT22;5615;49.304;10.576;2023-11-19T10:51:05;13.50;99.90
11122;DHT22;5615;49.304;10.576;2023-11-19T10:53:33;13.00;99.90
11122;DHT22;5615;49.304;10.576;2023-11-19T10:56:02;12.80;99.90
11122;DHT22;5615;49.304;10.576;2023-11-19T10:58:32;13.40;99.90
11122;DHT22;5615;49.304;10.576;2023-11-19T11:01:02;13.20;99.90
11122;DHT22;5615;49.304;10.576;2023-11-19T11:03:35;12.90;99.90
11122;DHT22;5615;49.304;10.576;2023-11-19T11:06:06;13.10;99.90
11122;DHT22;5615;49.304;10.576;2023-11-19T11:08:36;13.10;99.90
11122;DHT22;5615;49.304;10.576;2023-11-19T11:11:05;12.90;99.90
11122;DHT22;5615;49.304;10.576;2023-11-19T11:13:33;13.20;99.90
11122;DHT22;5615;49.304;10.576;2023-11-19T11:16:01;13.00;99.90
11122;DHT22;5615;49.304;10.576;2023-11-19T11:18:33;12.80;99.90
11122;DHT22;5615;49.304;10.576;2023-11-19T11:21:02;13.70;99.90
11122;DHT22;5615;49.304;10.576;2023-11-19T11:23:56;14.50;99.90
11122;DHT22;5615;49.304;10.576;2023-11-19T11:26:59;13.80;99.90
11122;DHT22;5615;49.304;10.576;2023-11-19T11:29:37;14.90;99.90
11122;DHT22;5615;49.304;10.576;2023-11-19T11:32:19;14.90;99.90
11122;DHT22;5615;49.304;10.576;2023-11-19T11:34:58;17.10;99.90
11122;DHT22;5615;49.304;10.576;2023-11-19T11:37:33;16.30;99.90
11122;DHT22;5615;49.304;10.576;2023-11-19T11:40:01;15.10;99.90
11122;DHT22;5615;49.304;10.576;2023-11-19T11:42:34;14.30;99.90
11122;DHT22;5615;49.304;10.576;2023-11-19T11:45:03;14.70;99.90
11122;DHT22;5615;49.304;10.576;2023-11-19T11:48:12;14.10;99.90
11122;DHT22;5615;49.304;10.576;2023-11-19T11:50:52;14.90;99.90
11122;DHT22;5615;49.304;10.576;2023-11-19T11:53:20;14.10;99.90
11122;DHT22;5615;49.304;10.576;2023-11-19T11:55:57;14.10;99.90
11122;DHT22;5615;49.304;10.576;2023-11-19T11:58:32;14.50;99.90
11122;DHT22;5615;49.304;10.576;2023-11-19T12:01:01;14.20;99.90
11122;DHT22;5615;49.304;10.576;2023-11-19T12:03:30;15.20;99.90
11122;DHT22;5615;49.304;10.576;2023-11-19T12:05:58;14.80;99.90
11122;DHT22;5615;49.304;10.576;2023-11-19T12:08:26;16.00;99.90
11122;DHT22;5615;49.304;10.576;2023-11-19T12:10:55;16.70;99.90
11122;DHT22;5615;49.304;10.576;2023-11-19T12:13:23;17.10;99.90
11122;DHT22;5615;49.304;10.576;2023-11-19T12:16:09;17.30;99.90
11122;DHT22;5615;49.304;10.576;2023-11-19T12:18:39;17.30;99.90
11122;DHT22;5615;49.304;10.576;2023-11-19T12:21:07;17.60;99.90
11122;DHT22;5615;49.304;10.576;2023-11-19T12:23:35;15.90;99.90
11122;DHT22;5615;49.304;10.576;2023-11-19T12:26:01;16.60;99.90
11122;DHT22;5615;49.304;10.576;2023-11-19T12:28:29;17.70;99.90
11122;DHT22;5615;49.304;10.576;2023-11-19T12:31:07;17.80;99.90
11122;DHT22;5615;49.304;10.576;2023-11-19T12:33:35;17.00;99.90
11122;DHT22;5615;49.304;10.576;2023-11-19T12:36:05;15.50;99.90
11122;DHT22;5615;49.304;10.576;2023-11-19T12:38:33;16.90;99.90
11122;DHT22;5615;49.304;10.576;2023-11-19T12:41:04;17.50;99.90
11122;DHT22;5615;49.304;10.576;2023-11-19T12:43:32;15.30;99.90
11122;DHT22;5615;49.304;10.576;2023-11-19T12:45:59;14.20;99.90
11122;DHT22;5615;49.304;10.576;2023-11-19T12:48:26;14.60;99.90
11122;DHT22;5615;49.304;10.576;2023-11-19T12:50:53;16.80;99.90
11122;DHT22;5615;49.304;10.576;2023-11-19T12:53:23;17.50;99.90
11122;DHT22;5615;49.304;10.576;2023-11-19T12:55:50;17.00;99.90
11122;DHT22;5615;49.304;10.576;2023-11-19T12:58:29;18.10;99.90
11122;DHT22;5615;49.304;10.576;2023-11-19T13:01:00;16.80;99.90
11122;DHT22;5615;49.304;10.576;2023-11-19T13:03:30;15.70;99.90
11122;DHT22;5615;49.304;10.576;2023-11-19T13:06:04;16.90;99.90
11122;DHT22;5615;49.304;10.576;2023-11-19T13:08:38;15.80;99.90
11122;DHT22;5615;49.304;10.576;2023-11-19T13:11:05;15.80;99.90
11122;DHT22;5615;49.304;10.576;2023-11-19T13:13:32;16.10;99.90
11122;DHT22;5615;49.304;10.576;2023-11-19T13:16:05;17.20;99.90
11122;DHT22;5615;49.304;10.576;2023-11-19T13:18:32;17.00;99.90
11122;DHT22;5615;49.304;10.576;2023-11-19T13:20:58;15.20;99.90
11122;DHT22;5615;49.304;10.576;2023-11-19T13:23:25;17.50;99.90
11122;DHT22;5615;49.304;10.576;2023-11-19T13:25:53;15.90;99.90
11122;DHT22;5615;49.304;10.576;2023-11-19T13:28:20;17.60;99.90
11122;DHT22;5615;49.304;10.576;2023-11-19T13:30:46;16.80;99.90
11122;DHT22;5615;49.304;10.576;2023-11-19T13:33:13;17.90;99.90
11122;DHT22;5615;49.304;10.576;2023-11-19T13:35:40;16.20;99.90
11122;DHT22;5615;49.304;10.576;2023-11-19T13:38:07;17.80;99.90
11122;DHT22;5615;49.304;10.576;2023-11-19T13:40:34;18.00;99.90
11122;DHT22;5615;49.304;10.576;2023-11-19T13:43:02;16.00;99.90
11122;DHT22;5615;49.304;10.576;2023-11-19T13:45:29;17.10;99.90
11122;DHT22;5615;49.304;10.576;2023-11-19T13:47:56;17.20;99.90
11122;DHT22;5615;49.304;10.576;2023-11-19T13:50:22;14.70;99.90
11122;DHT22;5615;49.304;10.576;2023-11-19T13:52:49;13.90;99.90
11122;DHT22;5615;49.304;10.576;2023-11-19T13:55:15;13.60;99.90
11122;DHT22;5615;49.304;10.576;2023-11-19T13:57:43;14.20;99.90
11122;DHT22;5615;49.304;10.576;2023-11-19T14:00:12;14.00;99.90
11122;DHT22;5615;49.304;10.576;2023-11-19T14:02:41;13.50;99.90
11122;DHT22;5615;49.304;10.576;2023-11-19T14:05:09;13.90;99.90
11122;DHT22;5615;49.304;10.576;2023-11-19T14:07:36;14.70;99.90
11122;DHT22;5615;49.304;10.576;2023-11-19T14:10:03;14.40;99.90
11122;DHT22;5615;49.304;10.576;2023-11-19T14:12:30;16.80;99.90
11122;DHT22;5615;49.304;10.576;2023-11-19T14:14:57;17.40;99.90
11122;DHT22;5615;49.304;10.576;2023-11-19T14:17:26;18.00;99.90
11122;DHT22;5615;49.304;10.576;2023-11-19T14:19:53;18.10;99.90
11122;DHT22;5615;49.304;10.576;2023-11-19T14:22:20;17.80;99.90
11122;DHT22;5615;49.304;10.576;2023-11-19T14:24:46;17.30;99.90
11122;DHT22;5615;49.304;10.576;2023-11-19T14:27:13;17.40;99.90
11122;DHT22;5615;49.304;10.576;2023-11-19T14:29:39;17.90;99.90
11122;DHT22;5615;49.304;10.576;2023-11-19T14:32:06;18.40;99.90
11122;DHT22;5615;49.304;10.576;2023-11-19T14:34:34;18.90;99.90
11122;DHT22;5615;49.304;10.576;2023-11-19T14:37:01;18.40;99.90
11122;DHT22;5615;49.304;10.576;2023-11-19T14:39:27;18.60;99.90
11122;DHT22;5615;49.304;10.576;2023-11-19T14:41:56;18.50;99.90
11122;DHT22;5615;49.304;10.576;2023-11-19T14:44:26;16.40;99.90
11122;DHT22;5615;49.304;10.576;2023-11-19T14:46:53;16.30;99.90
11122;DHT22;5615;49.304;10.576;2023-11-19T14:49:19;16.70;99.90
11122;DHT22;5615;49.304;10.576;2023-11-19T14:51:47;16.10;99.90
11122;DHT22;5615;49.304;10.576;2023-11-19T14:54:14;15.10;99.90
11122;DHT22;5615;49.304;10.576;2023-11-19T14:56:41;14.00;99.90
11122;DHT22;5615;49.304;10.576;2023-11-19T14:59:08;13.30;99.90
11122;DHT22;5615;49.304;10.576;2023-11-19T15:01:34;13.10;99.90
11122;DHT22;5615;49.304;10.576;2023-11-19T15:04:01;14.30;99.90
11122;DHT22;5615;49.304;10.576;2023-11-19T15:06:28;13.70;99.90
11122;DHT22;5615;49.304;10.576;2023-11-19T15:08:57;13.00;99.90
11122;DHT22;5615;49.304;10.576;2023-11-19T15:11:24;12.80;99.90
11122;DHT22;5615;49.304;10.576;2023-11-19T15:13:50;12.60;99.90
11122;DHT22;5615;49.304;10.576;2023-11-19T15:16:17;12.40;99.90
11122;DHT22;5615;49.304;10.576;2023-11-19T15:18:50;12.30;99.90
11122;DHT22;5615;49.304;10.576;2023-11-19T15:21:17;12.20;99.90
11122;DHT22;5615;49.304;10.576;2023-11-19T15:23:44;12.20;99.90
11122;DHT22;5615;49.304;10.576;2023-11-19T15:26:12;12.20;99.90
11122;DHT22;5615;49.304;10.576;2023-11-19T15:28:38;12.20;99.90
11122;DHT22;5615;49.304;10.576;2023-11-19T15:31:05;12.20;99.90
11122;DHT22;5615;49.304;10.576;2023-11-19T15:33:32;12.10;99.90
11122;DHT22;5615;49.304;10.576;2023-11-19T15:35:59;12.10;99.90
11122;DHT22;5615;49.304;10.576;2023-11-19T15:38:27;12.00;99.90
11122;DHT22;5615;49.304;10.576;2023-11-19T15:40:54;12.10;99.90
11122;DHT22;5615;49.304;10.576;2023-11-19T15:43:22;12.10;99.90